Weather at Vancouver International Airport

Public forecast

Using degrees Celsius for public forecast. Weather courtesy of forecast.io.

Current aviation weather report (METAR) for Vancouver International Airport

2023/02/02 18:00 (retrieved 24 minutes ago)

CYVR 021800Z 09005KT 20SM FEW140 BKN180 BKN210 04/02 A3014 RMK AC1AS4CI2 SLP210

Aviation forecast (TAF) for Vancouver International Airport

2023/02/02 18:42 (retrieved 0 seconds ago)

TAF CYVR 021740Z 0218/0324 10008KT P6SM FEW140 SCT170 BKN210 FM030000 09008KT P6SM BKN150 FM030600 07005KT P6SM SCT070 BKN120 OVC150 TEMPO 0306/0310 P6SM -SHRA BKN070 FM031000 04008KT P6SM SCT070 BKN120 BECMG 0314/0316 11010G20KT FM032000 13010G20KT P6SM -SHRA OVC050 RMK NXT FCST BY 022100Z